sensor_id;sensor_type;location;lat;lon;timestamp;P1;durP1;ratioP1;P2;durP2;ratioP2
69532;SDS011;56729;52.036;5.332;2022-08-03T00:00:46;6.22;;;1.80;;
69532;SDS011;56729;52.036;5.332;2022-08-03T00:01:48;8.07;;;1.85;;
69532;SDS011;56729;52.036;5.332;2022-08-03T00:02:50;7.95;;;2.17;;
69532;SDS011;56729;52.036;5.332;2022-08-03T00:03:52;8.95;;;1.77;;
69532;SDS011;56729;52.036;5.332;2022-08-03T00:04:54;6.82;;;1.83;;
69532;SDS011;56729;52.036;5.332;2022-08-03T00:05:56;8.13;;;1.80;;
69532;SDS011;56729;52.036;5.332;2022-08-03T00:07:05;8.40;;;2.00;;
69532;SDS011;56729;52.036;5.332;2022-08-03T00:08:07;8.50;;;2.10;;
69532;SDS011;56729;52.036;5.332;2022-08-03T00:09:10;6.32;;;1.77;;
69532;SDS011;56729;52.036;5.332;2022-08-03T00:10:12;5.00;;;1.92;;
69532;SDS011;56729;52.036;5.332;2022-08-03T00:11:14;8.13;;;2.35;;
69532;SDS011;56729;52.036;5.332;2022-08-03T00:12:16;8.70;;;1.90;;
69532;SDS011;56729;52.036;5.332;2022-08-03T00:13:19;8.68;;;2.03;;
69532;SDS011;56729;52.036;5.332;2022-08-03T00:14:20;7.90;;;2.22;;
69532;SDS011;56729;52.036;5.332;2022-08-03T00:15:22;7.32;;;2.15;;
69532;SDS011;56729;52.036;5.332;2022-08-03T00:16:25;10.53;;;2.33;;
69532;SDS011;56729;52.036;5.332;2022-08-03T00:17:28;8.43;;;2.28;;
69532;SDS011;56729;52.036;5.332;2022-08-03T00:18:49;7.10;;;2.30;;
69532;SDS011;56729;52.036;5.332;2022-08-03T00:19:51;7.00;;;2.10;;
69532;SDS011;56729;52.036;5.332;2022-08-03T00:20:53;5.75;;;2.20;;
69532;SDS011;56729;52.036;5.332;2022-08-03T00:21:55;6.90;;;1.55;;
69532;SDS011;56729;52.036;5.332;2022-08-03T00:22:57;6.88;;;1.80;;
69532;SDS011;56729;52.036;5.332;2022-08-03T00:23:59;6.35;;;1.60;;
69532;SDS011;56729;52.036;5.332;2022-08-03T00:25:01;10.07;;;2.47;;
69532;SDS011;56729;52.036;5.332;2022-08-03T00:26:03;7.35;;;1.92;;
69532;SDS011;56729;52.036;5.332;2022-08-03T00:27:05;7.90;;;2.07;;
69532;SDS011;56729;52.036;5.332;2022-08-03T00:28:08;11.13;;;2.85;;
69532;SDS011;56729;52.036;5.332;2022-08-03T00:29:10;6.50;;;1.98;;
69532;SDS011;56729;52.036;5.332;2022-08-03T00:30:12;6.25;;;2.20;;
69532;SDS011;56729;52.036;5.332;2022-08-03T00:31:17;10.15;;;2.45;;
69532;SDS011;56729;52.036;5.332;2022-08-03T00:32:38;9.25;;;2.40;;
69532;SDS011;56729;52.036;5.332;2022-08-03T00:33:45;11.15;;;2.20;;
69532;SDS011;56729;52.036;5.332;2022-08-03T00:35:00;7.63;;;2.53;;
69532;SDS011;56729;52.036;5.332;2022-08-03T00:36:10;5.82;;;1.98;;
69532;SDS011;56729;52.036;5.332;2022-08-03T00:37:11;10.90;;;1.90;;
69532;SDS011;56729;52.036;5.332;2022-08-03T00:38:13;7.33;;;2.00;;
69532;SDS011;56729;52.036;5.332;2022-08-03T00:39:15;8.90;;;1.90;;
69532;SDS011;56729;52.036;5.332;2022-08-03T00:40:17;4.85;;;2.00;;
69532;SDS011;56729;52.036;5.332;2022-08-03T00:41:20;5.15;;;1.88;;
69532;SDS011;56729;52.036;5.332;2022-08-03T00:42:22;8.73;;;1.77;;
69532;SDS011;56729;52.036;5.332;2022-08-03T00:43:28;7.78;;;2.33;;
69532;SDS011;56729;52.036;5.332;2022-08-03T00:44:30;6.28;;;1.75;;
69532;SDS011;56729;52.036;5.332;2022-08-03T00:45:40;6.70;;;2.47;;
69532;SDS011;56729;52.036;5.332;2022-08-03T00:46:42;8.43;;;2.17;;
69532;SDS011;56729;52.036;5.332;2022-08-03T00:47:44;5.35;;;2.00;;
69532;SDS011;56729;52.036;5.332;2022-08-03T00:48:47;15.40;;;2.53;;
69532;SDS011;56729;52.036;5.332;2022-08-03T00:49:52;7.95;;;2.30;;
69532;SDS011;56729;52.036;5.332;2022-08-03T00:50:54;8.40;;;1.77;;
69532;SDS011;56729;52.036;5.332;2022-08-03T00:51:56;8.80;;;2.45;;
69532;SDS011;56729;52.036;5.332;2022-08-03T00:52:59;10.85;;;2.75;;
69532;SDS011;56729;52.036;5.332;2022-08-03T00:54:03;10.63;;;2.20;;
69532;SDS011;56729;52.036;5.332;2022-08-03T00:55:05;6.47;;;2.00;;
69532;SDS011;56729;52.036;5.332;2022-08-03T00:56:07;6.03;;;2.15;;
69532;SDS011;56729;52.036;5.332;2022-08-03T00:57:09;9.90;;;2.83;;
69532;SDS011;56729;52.036;5.332;2022-08-03T00:58:12;11.63;;;2.40;;
69532;SDS011;56729;52.036;5.332;2022-08-03T00:59:15;6.70;;;2.57;;
69532;SDS011;56729;52.036;5.332;2022-08-03T01:00:19;7.05;;;2.38;;
69532;SDS011;56729;52.036;5.332;2022-08-03T01:01:23;6.18;;;2.15;;
69532;SDS011;56729;52.036;5.332;2022-08-03T01:02:28;7.82;;;2.50;;
69532;SDS011;56729;52.036;5.332;2022-08-03T01:03:30;8.80;;;2.67;;
69532;SDS011;56729;52.036;5.332;2022-08-03T01:04:32;9.93;;;2.92;;
69532;SDS011;56729;52.036;5.332;2022-08-03T01:05:56;6.78;;;2.38;;
69532;SDS011;56729;52.036;5.332;2022-08-03T01:07:13;9.07;;;2.67;;
69532;SDS011;56729;52.036;5.332;2022-08-03T01:11:48;7.55;;;2.40;;
69532;SDS011;56729;52.036;5.332;2022-08-03T01:13:16;8.75;;;1.95;;
69532;SDS011;56729;52.036;5.332;2022-08-03T01:14:48;9.68;;;2.80;;
69532;SDS011;56729;52.036;5.332;2022-08-03T01:16:02;6.20;;;2.47;;
69532;SDS011;56729;52.036;5.332;2022-08-03T01:17:18;7.88;;;2.75;;
69532;SDS011;56729;52.036;5.332;2022-08-03T01:18:31;6.30;;;2.00;;
69532;SDS011;56729;52.036;5.332;2022-08-03T01:21:12;8.75;;;2.25;;
69532;SDS011;56729;52.036;5.332;2022-08-03T01:22:44;8.23;;;2.30;;
69532;SDS011;56729;52.036;5.332;2022-08-03T01:23:58;7.30;;;2.23;;
69532;SDS011;56729;52.036;5.332;2022-08-03T01:28:01;11.27;;;2.28;;
69532;SDS011;56729;52.036;5.332;2022-08-03T01:30:44;12.55;;;2.53;;
69532;SDS011;56729;52.036;5.332;2022-08-03T01:31:48;8.40;;;2.70;;
69532;SDS011;56729;52.036;5.332;2022-08-03T01:33:39;9.77;;;2.55;;
69532;SDS011;56729;52.036;5.332;2022-08-03T01:34:46;11.57;;;2.90;;
69532;SDS011;56729;52.036;5.332;2022-08-03T01:35:53;9.82;;;2.70;;
69532;SDS011;56729;52.036;5.332;2022-08-03T01:36:59;7.43;;;2.43;;
69532;SDS011;56729;52.036;5.332;2022-08-03T01:38:09;10.82;;;2.53;;
69532;SDS011;56729;52.036;5.332;2022-08-03T01:39:18;11.57;;;3.08;;
69532;SDS011;56729;52.036;5.332;2022-08-03T01:40:23;11.82;;;2.50;;
69532;SDS011;56729;52.036;5.332;2022-08-03T01:41:32;8.73;;;2.90;;
69532;SDS011;56729;52.036;5.332;2022-08-03T01:42:35;9.55;;;2.70;;
69532;SDS011;56729;52.036;5.332;2022-08-03T01:43:41;7.75;;;2.40;;
69532;SDS011;56729;52.036;5.332;2022-08-03T01:45:06;9.43;;;2.63;;
69532;SDS011;56729;52.036;5.332;2022-08-03T01:46:10;9.25;;;3.08;;
69532;SDS011;56729;52.036;5.332;2022-08-03T01:47:14;6.30;;;2.88;;
69532;SDS011;56729;52.036;5.332;2022-08-03T01:48:19;11.27;;;2.87;;
69532;SDS011;56729;52.036;5.332;2022-08-03T01:49:21;8.43;;;2.95;;
69532;SDS011;56729;52.036;5.332;2022-08-03T01:50:26;14.95;;;2.70;;
69532;SDS011;56729;52.036;5.332;2022-08-03T01:51:30;11.07;;;2.83;;
69532;SDS011;56729;52.036;5.332;2022-08-03T01:52:53;12.05;;;3.10;;
69532;SDS011;56729;52.036;5.332;2022-08-03T01:53:57;8.05;;;3.00;;
69532;SDS011;56729;52.036;5.332;2022-08-03T01:55:01;7.53;;;2.75;;
69532;SDS011;56729;52.036;5.332;2022-08-03T01:56:04;10.85;;;3.95;;
69532;SDS011;56729;52.036;5.332;2022-08-03T01:57:07;8.13;;;2.92;;
69532;SDS011;56729;52.036;5.332;2022-08-03T01:58:10;9.70;;;3.20;;
69532;SDS011;56729;52.036;5.332;2022-08-03T01:59:18;14.20;;;2.70;;
69532;SDS011;56729;52.036;5.332;2022-08-03T02:00:22;12.02;;;2.85;;
69532;SDS011;56729;52.036;5.332;2022-08-03T02:01:25;13.20;;;3.10;;
69532;SDS011;56729;52.036;5.332;2022-08-03T02:02:48;9.20;;;3.70;;
69532;SDS011;56729;52.036;5.332;2022-08-03T02:03:52;9.13;;;2.83;;
69532;SDS011;56729;52.036;5.332;2022-08-03T02:05:02;10.30;;;2.80;;
69532;SDS011;56729;52.036;5.332;2022-08-03T02:06:11;13.10;;;3.10;;
69532;SDS011;56729;52.036;5.332;2022-08-03T02:07:35;8.07;;;2.60;;
69532;SDS011;56729;52.036;5.332;2022-08-03T02:08:39;10.32;;;3.40;;
69532;SDS011;56729;52.036;5.332;2022-08-03T02:09:44;12.10;;;3.00;;
69532;SDS011;56729;52.036;5.332;2022-08-03T02:10:50;9.80;;;3.03;;
69532;SDS011;56729;52.036;5.332;2022-08-03T02:11:52;10.57;;;3.20;;
69532;SDS011;56729;52.036;5.332;2022-08-03T02:12:56;8.73;;;3.50;;
69532;SDS011;56729;52.036;5.332;2022-08-03T02:14:02;9.50;;;3.03;;
69532;SDS011;56729;52.036;5.332;2022-08-03T02:15:06;10.77;;;3.00;;
69532;SDS011;56729;52.036;5.332;2022-08-03T02:16:09;9.32;;;3.00;;
69532;SDS011;56729;52.036;5.332;2022-08-03T02:17:14;10.00;;;2.70;;
69532;SDS011;56729;52.036;5.332;2022-08-03T02:18:17;14.00;;;2.85;;
69532;SDS011;56729;52.036;5.332;2022-08-03T02:19:20;7.22;;;2.80;;
69532;SDS011;56729;52.036;5.332;2022-08-03T02:20:24;11.63;;;2.95;;
69532;SDS011;56729;52.036;5.332;2022-08-03T02:21:29;11.03;;;3.17;;
69532;SDS011;56729;52.036;5.332;2022-08-03T02:22:55;13.52;;;4.68;;
69532;SDS011;56729;52.036;5.332;2022-08-03T02:23:57;14.73;;;3.00;;
69532;SDS011;56729;52.036;5.332;2022-08-03T02:25:00;11.50;;;3.45;;
69532;SDS011;56729;52.036;5.332;2022-08-03T02:26:03;8.45;;;2.88;;
69532;SDS011;56729;52.036;5.332;2022-08-03T02:27:13;9.65;;;3.58;;
69532;SDS011;56729;52.036;5.332;2022-08-03T02:28:44;10.25;;;2.88;;
69532;SDS011;56729;52.036;5.332;2022-08-03T02:31:23;14.13;;;3.67;;
69532;SDS011;56729;52.036;5.332;2022-08-03T02:32:30;14.40;;;3.55;;
69532;SDS011;56729;52.036;5.332;2022-08-03T02:33:36;14.93;;;3.20;;
69532;SDS011;56729;52.036;5.332;2022-08-03T02:34:41;15.63;;;3.90;;
69532;SDS011;56729;52.036;5.332;2022-08-03T02:35:47;13.52;;;3.00;;
69532;SDS011;56729;52.036;5.332;2022-08-03T02:36:51;9.77;;;3.33;;
69532;SDS011;56729;52.036;5.332;2022-08-03T02:37:57;11.63;;;3.30;;
69532;SDS011;56729;52.036;5.332;2022-08-03T02:39:02;15.30;;;3.33;;
69532;SDS011;56729;52.036;5.332;2022-08-03T02:40:05;11.27;;;3.65;;
69532;SDS011;56729;52.036;5.332;2022-08-03T02:41:12;10.13;;;3.80;;
69532;SDS011;56729;52.036;5.332;2022-08-03T02:42:17;9.93;;;3.47;;
69532;SDS011;56729;52.036;5.332;2022-08-03T02:43:23;8.13;;;2.90;;
69532;SDS011;56729;52.036;5.332;2022-08-03T02:44:27;9.90;;;3.23;;
69532;SDS011;56729;52.036;5.332;2022-08-03T02:45:34;13.68;;;3.50;;
69532;SDS011;56729;52.036;5.332;2022-08-03T02:46:44;7.57;;;2.85;;
69532;SDS011;56729;52.036;5.332;2022-08-03T02:47:49;12.98;;;3.63;;
69532;SDS011;56729;52.036;5.332;2022-08-03T02:48:55;10.15;;;3.40;;
69532;SDS011;56729;52.036;5.332;2022-08-03T02:50:19;10.27;;;3.63;;
69532;SDS011;56729;52.036;5.332;2022-08-03T02:51:23;12.20;;;3.15;;
69532;SDS011;56729;52.036;5.332;2022-08-03T02:52:28;16.33;;;3.97;;
69532;SDS011;56729;52.036;5.332;2022-08-03T02:53:33;12.20;;;3.25;;
69532;SDS011;56729;52.036;5.332;2022-08-03T02:54:36;10.30;;;2.85;;
69532;SDS011;56729;52.036;5.332;2022-08-03T02:55:40;10.87;;;3.23;;
69532;SDS011;56729;52.036;5.332;2022-08-03T02:56:46;11.25;;;3.20;;
69532;SDS011;56729;52.036;5.332;2022-08-03T02:57:49;9.50;;;2.75;;
69532;SDS011;56729;52.036;5.332;2022-08-03T02:58:53;9.80;;;2.88;;
69532;SDS011;56729;52.036;5.332;2022-08-03T02:59:57;12.63;;;3.17;;
69532;SDS011;56729;52.036;5.332;2022-08-03T03:01:01;11.48;;;3.22;;
69532;SDS011;56729;52.036;5.332;2022-08-03T03:02:03;17.27;;;3.40;;
69532;SDS011;56729;52.036;5.332;2022-08-03T03:03:06;10.63;;;3.83;;
69532;SDS011;56729;52.036;5.332;2022-08-03T03:04:10;14.10;;;3.53;;
69532;SDS011;56729;52.036;5.332;2022-08-03T03:05:13;15.55;;;3.40;;
69532;SDS011;56729;52.036;5.332;2022-08-03T03:06:37;10.47;;;3.70;;
69532;SDS011;56729;52.036;5.332;2022-08-03T03:07:40;13.82;;;3.80;;
69532;SDS011;56729;52.036;5.332;2022-08-03T03:08:53;10.65;;;3.38;;
69532;SDS011;56729;52.036;5.332;2022-08-03T03:10:00;10.75;;;3.95;;
69532;SDS011;56729;52.036;5.332;2022-08-03T03:11:03;12.70;;;4.03;;
69532;SDS011;56729;52.036;5.332;2022-08-03T03:12:06;12.13;;;3.30;;
69532;SDS011;56729;52.036;5.332;2022-08-03T03:13:10;12.40;;;4.15;;
69532;SDS011;56729;52.036;5.332;2022-08-03T03:14:14;11.25;;;3.35;;
69532;SDS011;56729;52.036;5.332;2022-08-03T03:15:33;12.80;;;3.50;;
69532;SDS011;56729;52.036;5.332;2022-08-03T03:16:37;12.85;;;3.83;;
69532;SDS011;56729;52.036;5.332;2022-08-03T03:17:40;10.70;;;3.23;;
69532;SDS011;56729;52.036;5.332;2022-08-03T03:18:45;12.48;;;3.88;;
69532;SDS011;56729;52.036;5.332;2022-08-03T03:19:49;8.95;;;3.08;;
69532;SDS011;56729;52.036;5.332;2022-08-03T03:20:52;11.70;;;3.35;;
69532;SDS011;56729;52.036;5.332;2022-08-03T03:21:56;12.80;;;3.10;;
69532;SDS011;56729;52.036;5.332;2022-08-03T03:23:01;11.55;;;3.88;;
69532;SDS011;56729;52.036;5.332;2022-08-03T03:24:05;12.82;;;3.45;;
69532;SDS011;56729;52.036;5.332;2022-08-03T03:25:08;12.07;;;3.25;;
69532;SDS011;56729;52.036;5.332;2022-08-03T03:26:11;11.25;;;3.60;;
69532;SDS011;56729;52.036;5.332;2022-08-03T03:27:14;14.43;;;3.38;;
69532;SDS011;56729;52.036;5.332;2022-08-03T03:28:17;14.43;;;4.00;;
69532;SDS011;56729;52.036;5.332;2022-08-03T03:29:19;9.68;;;3.90;;
69532;SDS011;56729;52.036;5.332;2022-08-03T03:30:22;8.63;;;3.58;;
69532;SDS011;56729;52.036;5.332;2022-08-03T03:31:24;15.10;;;3.97;;
69532;SDS011;56729;52.036;5.332;2022-08-03T03:32:27;11.57;;;3.72;;
69532;SDS011;56729;52.036;5.332;2022-08-03T03:33:30;12.65;;;4.05;;
69532;SDS011;56729;52.036;5.332;2022-08-03T03:34:34;12.52;;;3.55;;
69532;SDS011;56729;52.036;5.332;2022-08-03T03:35:37;12.50;;;3.90;;
69532;SDS011;56729;52.036;5.332;2022-08-03T03:36:42;10.80;;;3.40;;
69532;SDS011;56729;52.036;5.332;2022-08-03T03:37:44;12.43;;;3.90;;
69532;SDS011;56729;52.036;5.332;2022-08-03T03:38:46;11.37;;;3.20;;
69532;SDS011;56729;52.036;5.332;2022-08-03T03:39:48;14.40;;;4.05;;
69532;SDS011;56729;52.036;5.332;2022-08-03T03:40:50;12.90;;;3.70;;
69532;SDS011;56729;52.036;5.332;2022-08-03T03:41:52;10.90;;;4.43;;
69532;SDS011;56729;52.036;5.332;2022-08-03T03:42:55;12.55;;;3.95;;
69532;SDS011;56729;52.036;5.332;2022-08-03T03:43:57;9.77;;;3.60;;
69532;SDS011;56729;52.036;5.332;2022-08-03T03:45:02;15.45;;;4.07;;
69532;SDS011;56729;52.036;5.332;2022-08-03T03:46:05;9.75;;;3.42;;
69532;SDS011;56729;52.036;5.332;2022-08-03T03:47:07;15.20;;;4.15;;
69532;SDS011;56729;52.036;5.332;2022-08-03T03:48:11;9.93;;;3.78;;
69532;SDS011;56729;52.036;5.332;2022-08-03T03:49:14;13.60;;;4.07;;
69532;SDS011;56729;52.036;5.332;2022-08-03T03:50:16;15.05;;;4.53;;
69532;SDS011;56729;52.036;5.332;2022-08-03T03:51:19;16.50;;;3.95;;
69532;SDS011;56729;52.036;5.332;2022-08-03T03:52:21;12.45;;;4.28;;
69532;SDS011;56729;52.036;5.332;2022-08-03T03:53:23;13.10;;;3.50;;
69532;SDS011;56729;52.036;5.332;2022-08-03T03:54:25;11.88;;;3.70;;
69532;SDS011;56729;52.036;5.332;2022-08-03T03:55:29;13.27;;;3.78;;
69532;SDS011;56729;52.036;5.332;2022-08-03T03:56:31;11.35;;;3.78;;
69532;SDS011;56729;52.036;5.332;2022-08-03T03:57:33;12.18;;;4.20;;
69532;SDS011;56729;52.036;5.332;2022-08-03T03:58:35;14.68;;;4.00;;
69532;SDS011;56729;52.036;5.332;2022-08-03T03:59:37;13.87;;;4.00;;
69532;SDS011;56729;52.036;5.332;2022-08-03T04:00:43;12.57;;;4.38;;
69532;SDS011;56729;52.036;5.332;2022-08-03T04:01:46;10.23;;;3.92;;
69532;SDS011;56729;52.036;5.332;2022-08-03T04:02:59;14.02;;;4.80;;
69532;SDS011;56729;52.036;5.332;2022-08-03T04:04:01;15.70;;;4.10;;
69532;SDS011;56729;52.036;5.332;2022-08-03T04:05:23;13.85;;;4.32;;
69532;SDS011;56729;52.036;5.332;2022-08-03T04:06:46;16.00;;;3.92;;
69532;SDS011;56729;52.036;5.332;2022-08-03T04:08:13;15.57;;;4.55;;
69532;SDS011;56729;52.036;5.332;2022-08-03T04:09:35;13.00;;;3.83;;
69532;SDS011;56729;52.036;5.332;2022-08-03T04:11:21;9.18;;;4.07;;
69532;SDS011;56729;52.036;5.332;2022-08-03T04:12:40;13.73;;;3.77;;
69532;SDS011;56729;52.036;5.332;2022-08-03T04:14:55;10.45;;;3.47;;
69532;SDS011;56729;52.036;5.332;2022-08-03T04:15:59;11.90;;;4.13;;
69532;SDS011;56729;52.036;5.332;2022-08-03T04:17:03;11.32;;;4.03;;
69532;SDS011;56729;52.036;5.332;2022-08-03T04:18:10;12.40;;;4.30;;
69532;SDS011;56729;52.036;5.332;2022-08-03T04:19:59;23.80;;;4.47;;
69532;SDS011;56729;52.036;5.332;2022-08-03T04:20:38;16.75;;;4.75;;
69532;SDS011;56729;52.036;5.332;2022-08-03T04:21:48;12.45;;;4.40;;
69532;SDS011;56729;52.036;5.332;2022-08-03T04:22:52;14.40;;;3.97;;
69532;SDS011;56729;52.036;5.332;2022-08-03T04:23:58;13.50;;;4.27;;
69532;SDS011;56729;52.036;5.332;2022-08-03T04:25:03;8.35;;;3.95;;
69532;SDS011;56729;52.036;5.332;2022-08-03T04:26:09;15.63;;;4.22;;
69532;SDS011;56729;52.036;5.332;2022-08-03T04:27:14;12.82;;;4.22;;
69532;SDS011;56729;52.036;5.332;2022-08-03T04:28:21;13.75;;;3.95;;
69532;SDS011;56729;52.036;5.332;2022-08-03T04:29:32;14.25;;;4.25;;
69532;SDS011;56729;52.036;5.332;2022-08-03T04:30:38;19.35;;;4.00;;
69532;SDS011;56729;52.036;5.332;2022-08-03T04:31:47;13.85;;;4.53;;
69532;SDS011;56729;52.036;5.332;2022-08-03T04:32:52;12.77;;;5.00;;
69532;SDS011;56729;52.036;5.332;2022-08-03T04:33:56;12.45;;;4.13;;
69532;SDS011;56729;52.036;5.332;2022-08-03T04:34:58;13.50;;;4.20;;
69532;SDS011;56729;52.036;5.332;2022-08-03T04:36:01;15.40;;;4.20;;
69532;SDS011;56729;52.036;5.332;2022-08-03T04:37:13;12.90;;;4.72;;
69532;SDS011;56729;52.036;5.332;2022-08-03T04:38:36;13.85;;;4.10;;
69532;SDS011;56729;52.036;5.332;2022-08-03T04:39:40;15.70;;;4.63;;
69532;SDS011;56729;52.036;5.332;2022-08-03T04:40:43;13.38;;;4.85;;
69532;SDS011;56729;52.036;5.332;2022-08-03T04:41:46;18.58;;;4.50;;
69532;SDS011;56729;52.036;5.332;2022-08-03T04:43:09;14.30;;;4.53;;
69532;SDS011;56729;52.036;5.332;2022-08-03T04:44:13;11.43;;;4.43;;
69532;SDS011;56729;52.036;5.332;2022-08-03T04:45:16;12.73;;;5.03;;
69532;SDS011;56729;52.036;5.332;2022-08-03T04:46:20;16.60;;;4.80;;
69532;SDS011;56729;52.036;5.332;2022-08-03T04:47:24;11.98;;;3.85;;
69532;SDS011;56729;52.036;5.332;2022-08-03T04:48:26;15.68;;;4.88;;
69532;SDS011;56729;52.036;5.332;2022-08-03T04:49:29;15.50;;;4.43;;
69532;SDS011;56729;52.036;5.332;2022-08-03T04:50:32;11.60;;;4.25;;
69532;SDS011;56729;52.036;5.332;2022-08-03T04:51:37;13.35;;;4.68;;
69532;SDS011;56729;52.036;5.332;2022-08-03T04:52:40;13.52;;;4.35;;
69532;SDS011;56729;52.036;5.332;2022-08-03T04:53:42;15.15;;;4.70;;
69532;SDS011;56729;52.036;5.332;2022-08-03T04:54:44;20.67;;;4.78;;
69532;SDS011;56729;52.036;5.332;2022-08-03T04:55:50;13.73;;;5.15;;
69532;SDS011;56729;52.036;5.332;2022-08-03T04:56:52;19.67;;;5.07;;
69532;SDS011;56729;52.036;5.332;2022-08-03T04:57:55;13.93;;;4.50;;
69532;SDS011;56729;52.036;5.332;2022-08-03T04:58:57;15.38;;;4.53;;
69532;SDS011;56729;52.036;5.332;2022-08-03T04:59:59;13.73;;;4.45;;
69532;SDS011;56729;52.036;5.332;2022-08-03T05:01:03;16.15;;;4.65;;
69532;SDS011;56729;52.036;5.332;2022-08-03T05:02:06;18.95;;;4.55;;
69532;SDS011;56729;52.036;5.332;2022-08-03T05:03:08;12.88;;;4.32;;
69532;SDS011;56729;52.036;5.332;2022-08-03T05:04:24;11.40;;;3.88;;
69532;SDS011;56729;52.036;5.332;2022-08-03T05:05:26;13.82;;;4.60;;
69532;SDS011;56729;52.036;5.332;2022-08-03T05:06:48;12.48;;;3.65;;
69532;SDS011;56729;52.036;5.332;2022-08-03T05:07:55;11.57;;;3.77;;
69532;SDS011;56729;52.036;5.332;2022-08-03T05:08:57;15.02;;;4.95;;
69532;SDS011;56729;52.036;5.332;2022-08-03T05:09:59;13.43;;;4.05;;
69532;SDS011;56729;52.036;5.332;2022-08-03T05:11:03;13.98;;;4.00;;
69532;SDS011;56729;52.036;5.332;2022-08-03T05:12:05;18.48;;;4.30;;
69532;SDS011;56729;52.036;5.332;2022-08-03T05:13:08;13.88;;;3.95;;
69532;SDS011;56729;52.036;5.332;2022-08-03T05:14:13;14.48;;;4.75;;
69532;SDS011;56729;52.036;5.332;2022-08-03T05:15:15;15.50;;;4.50;;
69532;SDS011;56729;52.036;5.332;2022-08-03T05:16:17;17.27;;;4.60;;
69532;SDS011;56729;52.036;5.332;2022-08-03T05:17:19;12.13;;;4.25;;
69532;SDS011;56729;52.036;5.332;2022-08-03T05:18:21;14.83;;;4.20;;
69532;SDS011;56729;52.036;5.332;2022-08-03T05:19:23;13.38;;;4.40;;
69532;SDS011;56729;52.036;5.332;2022-08-03T05:20:25;15.55;;;4.10;;
69532;SDS011;56729;52.036;5.332;2022-08-03T05:21:27;13.13;;;4.75;;
69532;SDS011;56729;52.036;5.332;2022-08-03T05:22:49;11.95;;;4.22;;
69532;SDS011;56729;52.036;5.332;2022-08-03T05:23:51;14.75;;;4.97;;
69532;SDS011;56729;52.036;5.332;2022-08-03T05:24:53;11.98;;;4.28;;
69532;SDS011;56729;52.036;5.332;2022-08-03T05:25:55;12.23;;;4.13;;
69532;SDS011;56729;52.036;5.332;2022-08-03T05:26:57;13.32;;;4.43;;
69532;SDS011;56729;52.036;5.332;2022-08-03T05:27:59;14.88;;;4.65;;
69532;SDS011;56729;52.036;5.332;2022-08-03T05:29:01;16.67;;;4.80;;
69532;SDS011;56729;52.036;5.332;2022-08-03T05:30:03;17.25;;;4.85;;
69532;SDS011;56729;52.036;5.332;2022-08-03T05:31:25;14.30;;;4.40;;
69532;SDS011;56729;52.036;5.332;2022-08-03T05:32:27;14.05;;;4.38;;
69532;SDS011;56729;52.036;5.332;2022-08-03T05:33:29;13.25;;;4.60;;
69532;SDS011;56729;52.036;5.332;2022-08-03T05:34:31;13.63;;;4.40;;
69532;SDS011;56729;52.036;5.332;2022-08-03T05:35:33;16.90;;;4.20;;
69532;SDS011;56729;52.036;5.332;2022-08-03T05:36:59;14.57;;;4.28;;
69532;SDS011;56729;52.036;5.332;2022-08-03T05:38:01;23.20;;;5.47;;
69532;SDS011;56729;52.036;5.332;2022-08-03T05:39:04;14.35;;;4.63;;
69532;SDS011;56729;52.036;5.332;2022-08-03T05:40:06;16.47;;;5.27;;
69532;SDS011;56729;52.036;5.332;2022-08-03T05:41:08;16.55;;;4.60;;
69532;SDS011;56729;52.036;5.332;2022-08-03T05:42:23;19.30;;;5.68;;
69532;SDS011;56729;52.036;5.332;2022-08-03T05:43:25;16.55;;;4.85;;
69532;SDS011;56729;52.036;5.332;2022-08-03T05:44:27;13.48;;;4.28;;
69532;SDS011;56729;52.036;5.332;2022-08-03T05:45:30;13.77;;;4.53;;
69532;SDS011;56729;52.036;5.332;2022-08-03T05:46:32;14.10;;;4.85;;
69532;SDS011;56729;52.036;5.332;2022-08-03T05:47:34;16.75;;;5.13;;
69532;SDS011;56729;52.036;5.332;2022-08-03T05:48:36;18.45;;;4.97;;
69532;SDS011;56729;52.036;5.332;2022-08-03T05:49:38;12.45;;;5.40;;
69532;SDS011;56729;52.036;5.332;2022-08-03T05:50:40;14.83;;;4.70;;
69532;SDS011;56729;52.036;5.332;2022-08-03T05:51:43;22.20;;;5.93;;
69532;SDS011;56729;52.036;5.332;2022-08-03T05:52:45;17.08;;;5.53;;
69532;SDS011;56729;52.036;5.332;2022-08-03T05:53:47;14.70;;;5.05;;
69532;SDS011;56729;52.036;5.332;2022-08-03T05:54:49;18.45;;;5.28;;
69532;SDS011;56729;52.036;5.332;2022-08-03T05:55:57;21.08;;;5.40;;
69532;SDS011;56729;52.036;5.332;2022-08-03T05:57:15;17.33;;;5.28;;
69532;SDS011;56729;52.036;5.332;2022-08-03T05:58:16;20.08;;;4.82;;
69532;SDS011;56729;52.036;5.332;2022-08-03T05:59:18;16.35;;;6.18;;
69532;SDS011;56729;52.036;5.332;2022-08-03T06:00:38;13.45;;;4.78;;
69532;SDS011;56729;52.036;5.332;2022-08-03T06:01:40;16.63;;;5.50;;
69532;SDS011;56729;52.036;5.332;2022-08-03T06:02:42;16.85;;;4.68;;
69532;SDS011;56729;52.036;5.332;2022-08-03T06:03:44;16.80;;;5.65;;
69532;SDS011;56729;52.036;5.332;2022-08-03T06:04:50;19.73;;;5.70;;
69532;SDS011;56729;52.036;5.332;2022-08-03T06:05:52;17.80;;;5.68;;
69532;SDS011;56729;52.036;5.332;2022-08-03T06:07:00;18.95;;;5.47;;
69532;SDS011;56729;52.036;5.332;2022-08-03T06:08:02;17.90;;;5.65;;
69532;SDS011;56729;52.036;5.332;2022-08-03T06:09:04;15.88;;;5.57;;
69532;SDS011;56729;52.036;5.332;2022-08-03T06:10:06;17.77;;;5.40;;
69532;SDS011;56729;52.036;5.332;2022-08-03T06:11:29;15.07;;;4.88;;
69532;SDS011;56729;52.036;5.332;2022-08-03T06:12:31;11.50;;;4.73;;
69532;SDS011;56729;52.036;5.332;2022-08-03T06:13:36;11.40;;;4.82;;
69532;SDS011;56729;52.036;5.332;2022-08-03T06:14:38;12.73;;;5.15;;
69532;SDS011;56729;52.036;5.332;2022-08-03T06:15:40;14.13;;;5.07;;
69532;SDS011;56729;52.036;5.332;2022-08-03T06:16:42;12.50;;;4.68;;
69532;SDS011;56729;52.036;5.332;2022-08-03T06:17:48;18.67;;;4.90;;
69532;SDS011;56729;52.036;5.332;2022-08-03T06:18:51;20.27;;;5.03;;
69532;SDS011;56729;52.036;5.332;2022-08-03T06:19:53;15.45;;;4.38;;
69532;SDS011;56729;52.036;5.332;2022-08-03T06:20:55;19.60;;;5.20;;
69532;SDS011;56729;52.036;5.332;2022-08-03T06:21:57;15.23;;;4.75;;
69532;SDS011;56729;52.036;5.332;2022-08-03T06:23:00;18.37;;;4.93;;
69532;SDS011;56729;52.036;5.332;2022-08-03T06:24:02;18.30;;;5.13;;
69532;SDS011;56729;52.036;5.332;2022-08-03T06:25:06;15.68;;;4.40;;
69532;SDS011;56729;52.036;5.332;2022-08-03T06:26:13;16.10;;;4.90;;
69532;SDS011;56729;52.036;5.332;2022-08-03T06:27:15;18.60;;;5.40;;
69532;SDS011;56729;52.036;5.332;2022-08-03T06:28:17;13.80;;;4.07;;
69532;SDS011;56729;52.036;5.332;2022-08-03T06:29:38;19.80;;;4.93;;
69532;SDS011;56729;52.036;5.332;2022-08-03T06:30:40;20.25;;;5.18;;
69532;SDS011;56729;52.036;5.332;2022-08-03T06:31:42;15.63;;;4.90;;
69532;SDS011;56729;52.036;5.332;2022-08-03T06:32:44;19.42;;;5.97;;
69532;SDS011;56729;52.036;5.332;2022-08-03T06:33:52;15.27;;;4.93;;
69532;SDS011;56729;52.036;5.332;2022-08-03T06:35:14;21.58;;;5.05;;
69532;SDS011;56729;52.036;5.332;2022-08-03T06:36:16;16.83;;;4.63;;
69532;SDS011;56729;52.036;5.332;2022-08-03T06:37:18;15.93;;;4.20;;
69532;SDS011;56729;52.036;5.332;2022-08-03T06:38:20;21.95;;;5.25;;
69532;SDS011;56729;52.036;5.332;2022-08-03T06:39:22;22.98;;;5.13;;
69532;SDS011;56729;52.036;5.332;2022-08-03T06:40:26;16.52;;;5.00;;
69532;SDS011;56729;52.036;5.332;2022-08-03T06:41:31;14.40;;;4.60;;
69532;SDS011;56729;52.036;5.332;2022-08-03T06:42:41;15.85;;;5.05;;
69532;SDS011;56729;52.036;5.332;2022-08-03T06:43:44;16.92;;;4.40;;
69532;SDS011;56729;52.036;5.332;2022-08-03T06:45:05;16.20;;;5.03;;
69532;SDS011;56729;52.036;5.332;2022-08-03T06:46:09;16.95;;;4.50;;